Cedar Vale, Kansas
Current Conditions -  °F | °C
As of 3:26 PM on Thursday 18 Dec 2014 (Local Time) from KWLD Reporting Station
Overcast Overcast  
Wind Chill: 30°   Ceiling: 1000
Heat Index: 36°   Visibility: 10mi
Dew Point: 34°   Wind: 7mph
Humidity: 93%   Direction: 10°N
Pressure: 30.17"   Gusts: NA
Location:  37.1°N, 96.5°W
Report Text: KWLD 182126Z AUTO 01006KT 10SM OVC010 02/01 A3017 RMK AO2 CIG 006V013 T00220011
Loading
Personal Weather Stations






























Interactive Weather Map New forecast layout! Learn more

10-Day Weather Forecast

Advertisements
Track Severe Weather on mobile